Abbeville, LA

5:59 AM CST on December 19, 2014 (GMT -0600)
Acadiana Regional | Change Station
CLOSE
Current Station
Airport
Location: New Iberia,
Elevation: 23 ft
Nearby Weather Stations

Elev 23 ft 30.04 °N, 91.88 °W | Updated 6 minutes ago

Overcast
Overcast
57 °F
Feels Like 57 °F
N
18
Wind Variable Wind from North

Today
High -- | Low -- °F
--% Chance of Precip.
Yesterday
High -- | Low -- °F
Precip. -- in
6:58 AM 5:12 PM
Waning Crescent, 8% visible
Pressure 30.12 in
Visibility 7.0 miles
Clouds Overcast 600 ft
Dew Point 55 °F
Humidity 93%
Rainfall 0.05 in
Snow Depth Not available.
UV 0 out of 12
Pollen 4.60 out of 12
Air Quality Not available.
Flu Activity Not available.
METAR KARA 191153Z 35016KT 7SM -RA OVC006 14/13 A3012 RMK AO2 CIG 004V009 SLP197 P0004 60005 70005 T01390128 10161 20139 53026

More Conditions Fewer Conditions

Pressure 30.12 in
Visibility 7.0 miles
Clouds Overcast 600 ft
Dew Point 55 °F
Humidity 93%
Rainfall 0.05 in
Snow Depth Not available.
UV 0 out of 12
Pollen 4.60 out of 12
Air Quality Not available.
Flu Activity Not available.
METAR KARA 191153Z 35016KT 7SM -RA OVC006 14/13 A3012 RMK AO2 CIG 004V009 SLP197 P0004 60005 70005 T01390128 10161 20139 53026

More Conditions Fewer Conditions

Nowcast | as of 3:45 am CST on December 19, 2014

A large area of rain and showers mixed covers most of southeast Texas and southern Louisiana this morning. Rains will be heaviest along and north of the I-10 corridor. Rains are moving to the northeast. Isolated thunderstorms will be possible through the morning hours.

×

10-Day Weather Forecast

Almanac

Astronomy

Dec. 19, 2014 Rise Set
Actual Time
Civil Twilight
Nautical Twilight
Astronomical Twilight
Moon
Length of Visible Light
Length of Day
Tomorrow will be .
, % of the Moon is Illuminated

Today's Extremes

State Highs State Lows

Community

WunderPhotos

Upload Photos

1,778,966 photos uploaded!

WunderBlogs® & News

Nearby

Air Quality

  Air Quality AQ Index Pollutant
Not available.

Snow Depth

Station Depth Elevation

Earthquake Activity

City Distance Mag. Time & Date
Minimum magnitude displayed is 2.5.

Coastal Water Temperatures

Place Temperature

Nearby Weather Stations